Stolt Aguila — ZCYX9 — position and weather

sailwx.info

Track history (hours):
 
Tides and Currents Weather Stations Pressure Air Temp Water Temp Dewpoint Dewpoint Depression Visibility Wind Speed Wind Dir Waves Ship Positions

Stolt Aguila

Last reported at 2018-Jun-23 05:54 UTC. Time now 2018-Jun-25 14:14 UTC.
Position N 28°46' W 093°47'.

Length 124 m; draft 6.2 m.

Type: Ship (hazmat cat B). MMSI: 319014200.

Date/timePositionNaut miles runAvg speedWind from/ knotsBaromVisibWave heightAir tempDewpointWater temp
2018-Jun-23 05:54N 28°46' W 093°47'613.5
2018-Jun-23 05:26N 28°50' W 093°53'613.5
2018-Jun-23 05:00N 28°53' W 093°58'713.6
2018-Jun-23 04:30N 28°57' W 094°05'713.5
2018-Jun-23 04:00N 29°01' W 094°11'713.3
2018-Jun-23 03:30N 29°05' W 094°17'713.0
2018-Jun-23 03:00N 29°08' W 094°24'612.9
2018-Jun-23 02:30N 29°11' W 094°30'713.5
2018-Jun-23 02:00N 29°16' W 094°35'611.3
2018-Jun-23 01:29N 29°20' W 094°40'511.2
2018-Jun-23 01:00N 29°21' W 094°47'0 0.1
2018-Jun-23 00:30N 29°21' W 094°47'0 0.0
2018-Jun-23 00:00N 29°21' W 094°47'0 0.0
2018-Jun-22 23:30N 29°21' W 094°47'0 0.0
2018-Jun-22 23:00N 29°21' W 094°47'0 0.1
2018-Jun-22 22:30N 29°21' W 094°47'0 0.0
2018-Jun-22 21:57N 29°21' W 094°47'0 0.0
2018-Jun-22 21:30N 29°21' W 094°47'0 0.1
2018-Jun-22 21:00N 29°21' W 094°47'0 0.1
2018-Jun-22 20:30N 29°21' W 094°47'0 0.1
2018-Jun-22 19:57N 29°21' W 094°47'0 0.0
2018-Jun-22 19:30N 29°21' W 094°47'0 0.0
2018-Jun-22 19:00N 29°21' W 094°47'1 1.4
2018-Jun-22 18:30N 29°21' W 094°46'4 8.4
2018-Jun-22 18:00N 29°20' W 094°41'2710.1
2018-Jun-22 15:20N 29°18' W 094°11'612.4
2018-Jun-22 14:52N 29°22' W 094°06'512.4
2018-Jun-22 14:30N 29°25' W 094°02'612.1
2018-Jun-22 14:00N 29°29' W 093°57'612.5
2018-Jun-22 13:30N 29°30' W 093°50'612.4
2018-Jun-22 13:01N 29°32' W 093°43'612.2
2018-Jun-22 12:30N 29°33' W 093°36'612.3
2018-Jun-22 12:00N 29°35' W 093°29'712.7
2018-Jun-22 11:25N 29°37' W 093°21'5 7.9
2018-Jun-22 10:49N 29°42' W 093°20'411.1
2018-Jun-22 10:29N 29°45' W 093°21'5 9.7
2018-Jun-22 10:00N 29°50' W 093°21'510.1
2018-Jun-22 09:30N 29°55' W 093°20'5 9.9
2018-Jun-22 09:00N 29°60' W 093°20'5 9.1
2018-Jun-22 08:30N 30°04' W 093°20'4 8.1
2018-Jun-22 08:00N 30°08' W 093°20'0 0.6
2018-Jun-22 07:28N 30°09' W 093°20'0 0.0
2018-Jun-22 06:58N 30°09' W 093°20'0 0.0
2018-Jun-22 06:28N 30°09' W 093°20'0 0.0
2018-Jun-22 05:58N 30°09' W 093°20'0 0.0
2018-Jun-22 05:28N 30°09' W 093°20'0 0.0
2018-Jun-22 04:58N 30°09' W 093°20'0 0.0
2018-Jun-22 04:28N 30°09' W 093°20'0 0.0
2018-Jun-22 03:58N 30°09' W 093°20'0 0.0
2018-Jun-22 03:28N 30°09' W 093°20'0 0.0
2018-Jun-22 02:58N 30°09' W 093°20'0 0.0
2018-Jun-22 02:28N 30°09' W 093°20'0 0.0
2018-Jun-22 01:58N 30°09' W 093°20'0 0.0
2018-Jun-22 01:28N 30°09' W 093°20'0 0.0
2018-Jun-22 00:58N 30°09' W 093°20'0 0.0
2018-Jun-22 00:28N 30°09' W 093°20'0 0.0
2018-Jun-21 23:58N 30°09' W 093°20'0 0.0
2018-Jun-21 23:28N 30°09' W 093°20'0 0.0
2018-Jun-21 22:58N 30°09' W 093°20'0 0.0
2018-Jun-21 22:28N 30°09' W 093°20'0 0.0
2018-Jun-21 21:58N 30°09' W 093°20'0 0.0
2018-Jun-21 21:28N 30°09' W 093°20'0 0.0
2018-Jun-21 20:58N 30°09' W 093°20'0 0.0
2018-Jun-21 20:25N 30°09' W 093°20'0 0.0
2018-Jun-21 19:58N 30°09' W 093°20'0 0.0
2018-Jun-21 19:28N 30°09' W 093°20'0 0.0
2018-Jun-21 18:58N 30°09' W 093°20'0 0.0
2018-Jun-21 18:28N 30°09' W 093°20'0 0.0
2018-Jun-21 17:58N 30°09' W 093°20'0 0.0
2018-Jun-21 17:28N 30°09' W 093°20'0 0.0
2018-Jun-21 16:58N 30°09' W 093°20'0 0.0
2018-Jun-21 16:28N 30°09' W 093°20'0 0.0
2018-Jun-21 15:58N 30°09' W 093°20'0 0.0
2018-Jun-21 15:28N 30°09' W 093°20'0 0.0
2018-Jun-21 14:58N 30°09' W 093°20'0 0.0
2018-Jun-21 14:28N 30°09' W 093°20'0 0.0
2018-Jun-21 13:58N 30°09' W 093°20'0 0.0
2018-Jun-21 13:25N 30°09' W 093°20'0 0.0
2018-Jun-21 12:58N 30°09' W 093°20'0 0.0
2018-Jun-21 12:28N 30°09' W 093°20'0 0.0
2018-Jun-21 11:58N 30°09' W 093°20'0 0.0
2018-Jun-21 11:28N 30°09' W 093°20'0 0.0
2018-Jun-21 10:58N 30°09' W 093°20'0 0.0
2018-Jun-21 10:28N 30°09' W 093°20'0 0.0
2018-Jun-21 09:58N 30°09' W 093°20'0 0.0
2018-Jun-21 09:28N 30°09' W 093°20'0 0.0
2018-Jun-21 08:49N 30°09' W 093°20'0 0.0
2018-Jun-21 08:28N 30°09' W 093°20'0 0.0
2018-Jun-21 07:58N 30°09' W 093°20'0 0.0
2018-Jun-21 07:28N 30°09' W 093°20'0 0.0
2018-Jun-21 06:58N 30°09' W 093°20'0 0.0
2018-Jun-21 06:28N 30°09' W 093°20'0 0.0
2018-Jun-21 05:58N 30°09' W 093°20'0 0.0
2018-Jun-21 05:28N 30°09' W 093°20'0 0.0
2018-Jun-21 04:58N 30°09' W 093°20'0 0.0
2018-Jun-21 04:28N 30°09' W 093°20'0 0.0
2018-Jun-21 03:58N 30°09' W 093°20'0 0.0
2018-Jun-21 03:31N 30°09' W 093°20'2 4.3
2018-Jun-21 03:00N 30°07' W 093°20'5 9.5
2018-Jun-21 02:31N 30°02' W 093°20'4 9.0
2018-Jun-21 02:01N 29°57' W 093°20'5 9.9
2018-Jun-21 01:30N 29°52' W 093°21'510.0
2018-Jun-21 01:00N 29°47' W 093°21'  
2018-Jun-15 01:52N 29°35' W 093°29'513.5
2018-Jun-15 01:31N 29°34' W 093°35'713.7
2018-Jun-15 01:01N 29°32' W 093°43'713.6
2018-Jun-15 00:31N 29°30' W 093°50'713.5
2018-Jun-15 00:00N 29°29' W 093°58'713.5
2018-Jun-14 23:30N 29°24' W 094°03'  
Track history (hours):
 
Tides and Currents Weather Stations Pressure Air Temp Water Temp Dewpoint Dewpoint Depression Visibility Wind Speed Wind Dir Waves Ship Positions

Stolt Aguila

Last reported at 2018-Jun-23 05:54 UTC. Time now 2018-Jun-25 14:14 UTC.
Position N 28°46' W 093°47'.

Length 124 m; draft 6.2 m.

Type: Ship (hazmat cat B). MMSI: 319014200.

Date/timePositionNaut miles runAvg speedWind from/ knotsBaromVisibWave heightAir tempDewpointWater temp
2018-Jun-23 05:54N 28°46' W 093°47'613.5
2018-Jun-23 05:26N 28°50' W 093°53'613.5
2018-Jun-23 05:00N 28°53' W 093°58'713.6
2018-Jun-23 04:30N 28°57' W 094°05'713.5
2018-Jun-23 04:00N 29°01' W 094°11'713.3
2018-Jun-23 03:30N 29°05' W 094°17'713.0
2018-Jun-23 03:00N 29°08' W 094°24'612.9
2018-Jun-23 02:30N 29°11' W 094°30'713.5
2018-Jun-23 02:00N 29°16' W 094°35'611.3
2018-Jun-23 01:29N 29°20' W 094°40'511.2
2018-Jun-23 01:00N 29°21' W 094°47'0 0.1
2018-Jun-23 00:30N 29°21' W 094°47'0 0.0
2018-Jun-23 00:00N 29°21' W 094°47'0 0.0
2018-Jun-22 23:30N 29°21' W 094°47'0 0.0
2018-Jun-22 23:00N 29°21' W 094°47'0 0.1
2018-Jun-22 22:30N 29°21' W 094°47'0 0.0
2018-Jun-22 21:57N 29°21' W 094°47'0 0.0
2018-Jun-22 21:30N 29°21' W 094°47'0 0.1
2018-Jun-22 21:00N 29°21' W 094°47'0 0.1
2018-Jun-22 20:30N 29°21' W 094°47'0 0.1
2018-Jun-22 19:57N 29°21' W 094°47'0 0.0
2018-Jun-22 19:30N 29°21' W 094°47'0 0.0
2018-Jun-22 19:00N 29°21' W 094°47'1 1.4
2018-Jun-22 18:30N 29°21' W 094°46'4 8.4
2018-Jun-22 18:00N 29°20' W 094°41'2710.1
2018-Jun-22 15:20N 29°18' W 094°11'612.4
2018-Jun-22 14:52N 29°22' W 094°06'512.4
2018-Jun-22 14:30N 29°25' W 094°02'612.1
2018-Jun-22 14:00N 29°29' W 093°57'612.5
2018-Jun-22 13:30N 29°30' W 093°50'612.4
2018-Jun-22 13:01N 29°32' W 093°43'612.2
2018-Jun-22 12:30N 29°33' W 093°36'612.3
2018-Jun-22 12:00N 29°35' W 093°29'712.7
2018-Jun-22 11:25N 29°37' W 093°21'5 7.9
2018-Jun-22 10:49N 29°42' W 093°20'411.1
2018-Jun-22 10:29N 29°45' W 093°21'5 9.7
2018-Jun-22 10:00N 29°50' W 093°21'510.1
2018-Jun-22 09:30N 29°55' W 093°20'5 9.9
2018-Jun-22 09:00N 29°60' W 093°20'5 9.1
2018-Jun-22 08:30N 30°04' W 093°20'4 8.1
2018-Jun-22 08:00N 30°08' W 093°20'0 0.6
2018-Jun-22 07:28N 30°09' W 093°20'0 0.0
2018-Jun-22 06:58N 30°09' W 093°20'0 0.0
2018-Jun-22 06:28N 30°09' W 093°20'0 0.0
2018-Jun-22 05:58N 30°09' W 093°20'0 0.0
2018-Jun-22 05:28N 30°09' W 093°20'0 0.0
2018-Jun-22 04:58N 30°09' W 093°20'0 0.0
2018-Jun-22 04:28N 30°09' W 093°20'0 0.0
2018-Jun-22 03:58N 30°09' W 093°20'0 0.0
2018-Jun-22 03:28N 30°09' W 093°20'0 0.0
2018-Jun-22 02:58N 30°09' W 093°20'0 0.0
2018-Jun-22 02:28N 30°09' W 093°20'0 0.0
2018-Jun-22 01:58N 30°09' W 093°20'0 0.0
2018-Jun-22 01:28N 30°09' W 093°20'0 0.0
2018-Jun-22 00:58N 30°09' W 093°20'0 0.0
2018-Jun-22 00:28N 30°09' W 093°20'0 0.0
2018-Jun-21 23:58N 30°09' W 093°20'0 0.0
2018-Jun-21 23:28N 30°09' W 093°20'0 0.0
2018-Jun-21 22:58N 30°09' W 093°20'0 0.0
2018-Jun-21 22:28N 30°09' W 093°20'0 0.0
2018-Jun-21 21:58N 30°09' W 093°20'0 0.0
2018-Jun-21 21:28N 30°09' W 093°20'0 0.0
2018-Jun-21 20:58N 30°09' W 093°20'0 0.0
2018-Jun-21 20:25N 30°09' W 093°20'0 0.0
2018-Jun-21 19:58N 30°09' W 093°20'0 0.0
2018-Jun-21 19:28N 30°09' W 093°20'0 0.0
2018-Jun-21 18:58N 30°09' W 093°20'0 0.0
2018-Jun-21 18:28N 30°09' W 093°20'0 0.0
2018-Jun-21 17:58N 30°09' W 093°20'0 0.0
2018-Jun-21 17:28N 30°09' W 093°20'0 0.0
2018-Jun-21 16:58N 30°09' W 093°20'0 0.0
2018-Jun-21 16:28N 30°09' W 093°20'0 0.0
2018-Jun-21 15:58N 30°09' W 093°20'0 0.0
2018-Jun-21 15:28N 30°09' W 093°20'0 0.0
2018-Jun-21 14:58N 30°09' W 093°20'0 0.0
2018-Jun-21 14:28N 30°09' W 093°20'0 0.0
2018-Jun-21 13:58N 30°09' W 093°20'0 0.0
2018-Jun-21 13:25N 30°09' W 093°20'0 0.0
2018-Jun-21 12:58N 30°09' W 093°20'0 0.0
2018-Jun-21 12:28N 30°09' W 093°20'0 0.0
2018-Jun-21 11:58N 30°09' W 093°20'0 0.0
2018-Jun-21 11:28N 30°09' W 093°20'0 0.0
2018-Jun-21 10:58N 30°09' W 093°20'0 0.0
2018-Jun-21 10:28N 30°09' W 093°20'0 0.0
2018-Jun-21 09:58N 30°09' W 093°20'0 0.0
2018-Jun-21 09:28N 30°09' W 093°20'0 0.0
2018-Jun-21 08:49N 30°09' W 093°20'0 0.0
2018-Jun-21 08:28N 30°09' W 093°20'0 0.0
2018-Jun-21 07:58N 30°09' W 093°20'0 0.0
2018-Jun-21 07:28N 30°09' W 093°20'0 0.0
2018-Jun-21 06:58N 30°09' W 093°20'0 0.0
2018-Jun-21 06:28N 30°09' W 093°20'0 0.0
2018-Jun-21 05:58N 30°09' W 093°20'0 0.0
2018-Jun-21 05:28N 30°09' W 093°20'0 0.0
2018-Jun-21 04:58N 30°09' W 093°20'0 0.0
2018-Jun-21 04:28N 30°09' W 093°20'0 0.0
2018-Jun-21 03:58N 30°09' W 093°20'0 0.0
2018-Jun-21 03:31N 30°09' W 093°20'2 4.3
2018-Jun-21 03:00N 30°07' W 093°20'5 9.5
2018-Jun-21 02:31N 30°02' W 093°20'4 9.0
2018-Jun-21 02:01N 29°57' W 093°20'5 9.9
2018-Jun-21 01:30N 29°52' W 093°21'510.0
2018-Jun-21 01:00N 29°47' W 093°21'  
2018-Jun-15 01:52N 29°35' W 093°29'513.5
2018-Jun-15 01:31N 29°34' W 093°35'713.7
2018-Jun-15 01:01N 29°32' W 093°43'713.6
2018-Jun-15 00:31N 29°30' W 093°50'713.5
2018-Jun-15 00:00N 29°29' W 093°58'713.5
2018-Jun-14 23:30N 29°24' W 094°03'  

Dump ship's entire track history